This is the latest recevied weather packets stored in our database for station/object WB0OCV. If no packets are shown the sender has not sent any weather packets the latest 10 day(s).
| Time | Temp. | Humidity | Pressure | Rain* | Wind** | Luminosity | Snow |
|---|---|---|---|---|---|---|---|
| 1777730215 | 13.89° C | 67% | 1015.6 hPa | 0 mm | - | 268 W/m² | - |
| 1777729912 | 12.78° C | 68% | 1015.6 hPa | 0 mm | - | 712 W/m² | - |
| 1777729305 | 13.33° C | 68% | 1015.4 hPa | 0 mm | - | 304 W/m² | - |
| 1777729002 | 13.33° C | 68% | 1015.5 hPa | 0 mm | - | 310 W/m² | - |
| 1777728699 | 13.33° C | 69% | 1015.5 hPa | 0 mm | - | 249 W/m² | - |
| 1777728395 | 13.33° C | 67% | 1015.3 hPa | 0 mm | - | 198 W/m² | - |
| 1777728093 | 13.33° C | 69% | 1015.4 hPa | 0 mm | - | 229 W/m² | - |
| 1777727790 | 13.33° C | 68% | 1015.5 hPa | 0 mm | - | 175 W/m² | - |
| 1777727487 | 12.78° C | 69% | 1015.4 hPa | 0 mm | - | 195 W/m² | - |
| 1777727184 | 12.78° C | 68% | 1015.6 hPa | 0 mm | - | 195 W/m² | - |
| 1777726882 | 12.78° C | 70% | 1015.5 hPa | 0 mm | - | 192 W/m² | - |
| 1777726578 | 12.22° C | 72% | 1015.3 hPa | 0 mm | - | 186 W/m² | - |
| 1777725669 | 12.22° C | 71% | 1015.6 hPa | 0 mm | - | 163 W/m² | - |
| 1777725367 | 12.22° C | 72% | 1015.7 hPa | 0 mm | - | 177 W/m² | - |
| 1777725064 | 11.67° C | 74% | 1015.6 hPa | 0 mm | - | 169 W/m² | - |
| 1777724760 | 11.67° C | 74% | 1015.5 hPa | 0 mm | - | 183 W/m² | - |
| 1777724457 | 11.67° C | 75% | 1015.4 hPa | 0 mm | - | 161 W/m² | - |
| 1777724155 | 11.67° C | 75% | 1015.2 hPa | 0 mm | - | 107 W/m² | - |
| 1777723852 | 11.67° C | 74% | 1015.4 hPa | 0 mm | - | 119 W/m² | - |
| 1777723548 | 11.67° C | 74% | 1015.2 hPa | 0 mm | - | 152 W/m² | - |
| 1777723246 | 11.11° C | 75% | 1015.2 hPa | 0 mm | - | 154 W/m² | - |
| 1777722639 | 10.56° C | 79% | 1015.4 hPa | 0 mm | - | 96 W/m² | - |
| 1777722033 | 10.56° C | 80% | 1015.4 hPa | 0 mm | - | 124 W/m² | - |
| 1777721731 | 10° C | 83% | 1015.2 hPa | 0 mm | - | 107 W/m² | - |
| 1777721429 | 9.44° C | 85% | 1015.4 hPa | 0 mm | - | 70 W/m² | - |
* Rain latest hour (hover to see other rain measurements)
** Current wind speed in m/s (hover to see current wind gust speed)